createdAt,value
2019-03-30T00:01:51.905Z,46.92
2019-03-30T00:04:22.086Z,49.98
2019-03-30T00:06:52.181Z,56.60
2019-03-30T00:09:22.370Z,49.80
2019-03-30T00:11:52.421Z,57.35
2019-03-30T00:14:27.760Z,46.42
2019-03-30T00:16:57.032Z,46.98
2019-03-30T00:19:34.831Z,47.88
2019-03-30T00:21:58.766Z,45.38
2019-03-30T00:24:28.829Z,43.20
2019-03-30T00:26:58.872Z,44.58
2019-03-30T00:29:28.932Z,58.50
2019-03-30T00:31:59.061Z,49.25
2019-03-30T00:34:29.116Z,51.37
2019-03-30T00:36:59.165Z,46.55
2019-03-30T00:39:29.306Z,50.00
2019-03-30T00:41:59.525Z,52.13
2019-03-30T00:44:29.763Z,50.45
2019-03-30T00:46:59.769Z,46.23
2019-03-30T00:49:29.829Z,45.38
2019-03-30T00:51:59.966Z,48.68
2019-03-30T00:54:30.080Z,46.28
2019-03-30T00:57:00.133Z,47.00
2019-03-30T00:59:30.187Z,47.70
2019-03-30T01:02:00.386Z,47.45
2019-03-30T01:04:30.505Z,47.10
2019-03-30T01:07:00.583Z,48.48
2019-03-30T01:09:30.702Z,44.65
2019-03-30T01:12:00.761Z,47.93
2019-03-30T01:14:30.988Z,51.13
2019-03-30T01:17:01.801Z,52.62
2019-03-30T01:19:31.932Z,44.58
2019-03-30T01:22:01.973Z,49.98
2019-03-30T01:24:32.104Z,46.45
2019-03-30T01:27:02.224Z,59.25
2019-03-30T01:29:32.286Z,52.30
2019-03-30T01:32:02.334Z,50.45
2019-03-30T01:34:33.478Z,45.98
2019-03-30T01:37:03.613Z,48.42
2019-03-30T01:39:33.676Z,54.98
2019-03-30T01:42:03.847Z,46.20
2019-03-30T01:44:34.040Z,54.15
2019-03-30T01:47:04.234Z,46.13
2019-03-30T01:49:34.300Z,57.78
2019-03-30T01:52:04.476Z,53.92
2019-03-30T01:54:34.591Z,50.55
2019-03-30T01:57:04.768Z,49.35
2019-03-30T01:59:34.940Z,53.55
2019-03-30T02:02:05.207Z,55.00
2019-03-30T02:04:35.380Z,56.65
2019-03-30T02:07:05.543Z,51.58
2019-03-30T02:09:35.593Z,45.75
2019-03-30T02:12:05.662Z,46.75
2019-03-30T02:14:35.702Z,52.85
2019-03-30T02:17:05.756Z,52.83
2019-03-30T02:19:35.950Z,49.10
2019-03-30T02:22:06.103Z,51.05
2019-03-30T02:24:36.184Z,48.75
2019-03-30T02:27:06.385Z,50.58
2019-03-30T02:29:36.470Z,47.73
2019-03-30T02:32:06.621Z,47.03
2019-03-30T02:34:36.698Z,47.98
2019-03-30T02:37:06.945Z,44.42
2019-03-30T02:39:37.110Z,53.70
2019-03-30T02:42:07.243Z,46.18
2019-03-30T02:44:37.302Z,50.30
2019-03-30T02:47:07.463Z,47.43
2019-03-30T02:49:37.536Z,50.50
2019-03-30T02:52:07.587Z,49.50
2019-03-30T02:54:37.653Z,48.90
2019-03-30T02:57:07.778Z,47.25
2019-03-30T02:59:37.883Z,48.13
2019-03-30T03:02:09.073Z,51.63
2019-03-30T03:04:39.267Z,46.85
2019-03-30T03:07:09.391Z,47.70
2019-03-30T03:09:39.478Z,47.65
2019-03-30T03:12:09.592Z,55.28
2019-03-30T03:14:39.763Z,48.15
2019-03-30T03:17:09.880Z,52.55
2019-03-30T03:19:40.100Z,52.05
2019-03-30T03:22:10.174Z,46.28
2019-03-30T03:24:40.217Z,48.48
2019-03-30T03:27:10.405Z,44.33
2019-03-30T03:29:43.663Z,45.12
2019-03-30T03:32:12.349Z,47.05
2019-03-30T03:34:42.530Z,52.38
2019-03-30T03:37:12.661Z,47.55
2019-03-30T03:39:42.853Z,45.52
2019-03-30T03:42:12.972Z,43.10
2019-03-30T03:44:43.083Z,45.05
2019-03-30T03:47:13.278Z,49.30
2019-03-30T03:49:44.307Z,54.25
2019-03-30T03:52:14.522Z,49.18
2019-03-30T03:54:44.707Z,47.58
2019-03-30T03:57:16.574Z,46.50
2019-03-30T03:59:49.702Z,52.05
2019-03-30T04:02:22.462Z,49.73
2019-03-30T04:04:54.668Z,47.48
2019-03-30T04:07:24.851Z,43.98
2019-03-30T04:09:58.004Z,46.83
2019-03-30T04:12:29.181Z,43.20
2019-03-30T04:15:00.850Z,50.73
2019-03-30T04:17:31.251Z,48.90
2019-03-30T04:20:01.402Z,45.30
2019-03-30T04:22:31.517Z,47.95
2019-03-30T04:25:01.651Z,54.77
2019-03-30T04:27:31.776Z,46.35
2019-03-30T04:30:01.834Z,43.68
2019-03-30T04:32:31.946Z,42.05
2019-03-30T04:35:03.382Z,47.78
2019-03-30T04:37:33.427Z,54.70
2019-03-30T04:40:04.438Z,47.75
2019-03-30T04:42:34.487Z,48.40
2019-03-30T04:45:06.887Z,43.87
2019-03-30T04:47:37.007Z,41.42
2019-03-30T04:50:07.660Z,44.48
2019-03-30T04:52:37.778Z,48.35
2019-03-30T04:55:07.971Z,44.10
2019-03-30T04:57:38.032Z,47.33
2019-03-30T05:00:08.852Z,44.27
2019-03-30T05:02:38.917Z,47.35
2019-03-30T05:05:09.202Z,44.67
2019-03-30T05:07:39.329Z,42.73
2019-03-30T05:10:09.550Z,40.45
2019-03-30T05:12:39.573Z,43.92
2019-03-30T05:15:09.861Z,43.00
2019-03-30T05:17:47.342Z,43.55
2019-03-30T05:20:11.801Z,39.25
2019-03-30T05:22:42.007Z,42.43
2019-03-30T05:25:12.193Z,41.98
2019-03-30T05:27:42.309Z,40.30
2019-03-30T05:30:13.569Z,38.67
2019-03-30T05:32:43.635Z,46.02
2019-03-30T05:35:13.772Z,46.48
2019-03-30T05:37:43.817Z,39.78
2019-03-30T05:40:13.943Z,45.95
2019-03-30T05:42:44.063Z,41.60
2019-03-30T05:45:14.357Z,40.20
2019-03-30T05:47:44.405Z,42.40
2019-03-30T05:50:14.804Z,40.98
2019-03-30T05:52:44.924Z,46.45
2019-03-30T05:55:15.121Z,43.05
2019-03-30T05:57:45.241Z,43.68
2019-03-30T06:00:18.178Z,46.55
2019-03-30T06:02:48.307Z,45.92
2019-03-30T06:05:18.626Z,44.33
2019-03-30T06:07:48.746Z,47.95
2019-03-30T06:10:19.874Z,45.75
2019-03-30T06:12:50.005Z,60.12
2019-03-30T06:15:20.136Z,43.38
2019-03-30T06:17:50.263Z,48.33
2019-03-30T06:20:20.382Z,46.65
2019-03-30T06:22:50.437Z,56.02
2019-03-30T06:25:21.470Z,54.93
2019-03-30T06:27:51.527Z,48.95
2019-03-30T06:30:26.419Z,57.13
2019-03-30T06:32:56.555Z,45.95
2019-03-30T06:35:26.750Z,56.10
2019-03-30T06:37:56.827Z,47.55
2019-03-30T06:40:26.949Z,51.92
2019-03-30T06:42:57.034Z,55.45
2019-03-30T06:45:27.156Z,51.53
2019-03-30T06:47:57.290Z,58.55
2019-03-30T06:50:27.498Z,56.08
2019-03-30T06:52:59.042Z,60.40
2019-03-30T06:55:30.869Z,55.35
2019-03-30T06:58:00.986Z,62.83
2019-03-30T07:00:35.140Z,54.55
2019-03-30T07:03:06.228Z,51.50
2019-03-30T07:05:41.646Z,52.45
2019-03-30T07:08:17.437Z,50.23
2019-03-30T07:10:48.150Z,57.35
2019-03-30T07:13:18.356Z,49.40
2019-03-30T07:15:49.467Z,45.58
2019-03-30T07:18:20.246Z,54.98
2019-03-30T07:20:50.445Z,50.70
2019-03-30T07:23:20.668Z,48.00
2019-03-30T07:25:50.858Z,49.33
2019-03-30T07:28:21.133Z,46.33
2019-03-30T07:30:51.183Z,44.08
2019-03-30T07:33:21.301Z,51.75
2019-03-30T07:35:51.359Z,49.20
2019-03-30T07:38:21.429Z,44.77
2019-03-30T07:40:51.645Z,42.48
2019-03-30T07:43:21.772Z,43.28
2019-03-30T07:45:51.836Z,51.98
2019-03-30T07:48:22.044Z,45.12
2019-03-30T07:50:52.173Z,50.80
2019-03-30T07:53:26.584Z,45.30
2019-03-30T07:56:07.434Z,40.63
2019-03-30T07:58:25.977Z,41.70
2019-03-30T08:00:56.186Z,42.45
2019-03-30T08:03:26.326Z,37.93
2019-03-30T08:05:56.446Z,44.42
2019-03-30T08:08:26.575Z,38.73
2019-03-30T08:10:56.723Z,41.48
2019-03-30T08:13:26.773Z,40.17
2019-03-30T08:15:56.847Z,39.13
2019-03-30T08:18:26.901Z,44.70
2019-03-30T08:20:57.112Z,45.65
2019-03-30T08:23:39.880Z,44.25
2019-03-30T08:26:00.585Z,41.90
2019-03-30T08:28:30.775Z,45.43
2019-03-30T08:31:00.904Z,45.58
2019-03-30T08:33:30.965Z,45.63
2019-03-30T08:36:01.028Z,44.53
2019-03-30T08:38:32.190Z,48.65
2019-03-30T08:41:02.353Z,47.23
2019-03-30T08:43:32.549Z,48.58
2019-03-30T08:46:02.777Z,44.75
2019-03-30T08:48:32.982Z,49.40
2019-03-30T08:51:03.032Z,44.85
2019-03-30T08:53:33.177Z,44.10
2019-03-30T08:56:03.411Z,45.95
2019-03-30T08:58:33.477Z,44.10
2019-03-30T09:01:03.734Z,42.35
2019-03-30T09:03:34.169Z,41.28
2019-03-30T09:06:04.382Z,40.30
2019-03-30T09:08:34.540Z,42.08
2019-03-30T09:11:04.672Z,42.50
2019-03-30T09:13:34.814Z,45.85
2019-03-30T09:16:04.946Z,44.90
2019-03-30T09:18:34.999Z,40.23
2019-03-30T09:21:05.205Z,46.30
2019-03-30T09:23:35.332Z,39.98
2019-03-30T09:26:05.475Z,47.35
2019-03-30T09:28:35.531Z,42.23
2019-03-30T09:31:05.733Z,41.48
2019-03-30T09:33:35.853Z,40.67
2019-03-30T09:36:06.063Z,42.05
2019-03-30T09:38:36.186Z,38.78
2019-03-30T09:41:06.332Z,41.92
2019-03-30T09:43:37.721Z,38.02
2019-03-30T09:46:08.021Z,47.98
2019-03-30T09:48:38.069Z,37.20
2019-03-30T09:51:09.175Z,43.65
2019-03-30T09:53:39.318Z,42.45
2019-03-30T09:56:09.446Z,44.77
2019-03-30T09:58:39.517Z,37.60
2019-03-30T10:01:10.790Z,47.55
2019-03-30T10:03:40.993Z,44.30
2019-03-30T10:06:11.121Z,39.42
2019-03-30T10:08:41.194Z,40.63
2019-03-30T10:11:11.251Z,39.35
2019-03-30T10:13:41.322Z,42.27
2019-03-30T10:16:11.445Z,39.58
2019-03-30T10:18:41.516Z,36.42
2019-03-30T10:21:11.570Z,36.03
2019-03-30T10:23:41.631Z,36.50
2019-03-30T10:26:11.766Z,41.63
2019-03-30T10:28:41.840Z,43.00
2019-03-30T10:31:11.904Z,39.33
2019-03-30T10:33:41.961Z,38.50
2019-03-30T10:36:12.048Z,35.63
2019-03-30T10:38:42.088Z,35.98
2019-03-30T10:41:17.718Z,42.45
2019-03-30T10:43:52.516Z,39.15
2019-03-30T10:46:25.204Z,44.38
2019-03-30T10:48:58.468Z,41.18
2019-03-30T10:51:32.628Z,35.23
2019-03-30T10:54:02.749Z,40.28
2019-03-30T10:56:32.921Z,37.63
2019-03-30T10:59:03.122Z,33.55
2019-03-30T11:01:33.245Z,44.98
2019-03-30T11:04:03.341Z,38.88
2019-03-30T11:06:33.537Z,38.98
2019-03-30T11:09:05.344Z,38.63
2019-03-30T11:11:35.461Z,37.20
2019-03-30T11:14:05.670Z,35.75
2019-03-30T11:16:36.794Z,36.98
2019-03-30T11:19:17.441Z,42.48
2019-03-30T11:21:47.646Z,38.80
2019-03-30T11:24:17.714Z,39.80
2019-03-30T11:26:47.918Z,35.63
2019-03-30T11:29:18.063Z,35.52
2019-03-30T11:31:48.109Z,29.63
2019-03-30T11:34:18.202Z,35.08
2019-03-30T11:36:48.320Z,34.88
2019-03-30T11:39:18.390Z,35.43
2019-03-30T11:41:48.521Z,36.63
2019-03-30T11:44:18.578Z,34.18
2019-03-30T11:46:48.925Z,37.13
2019-03-30T11:49:18.994Z,32.78
2019-03-30T11:51:49.137Z,29.92
2019-03-30T11:54:19.322Z,26.35
2019-03-30T11:56:49.448Z,22.30
2019-03-30T11:59:19.544Z,31.50
2019-03-30T12:01:49.781Z,30.75
2019-03-30T12:04:20.117Z,32.63
2019-03-30T12:06:51.894Z,32.50
2019-03-30T12:09:21.913Z,31.30
2019-03-30T12:11:52.058Z,35.48
2019-03-30T12:14:23.881Z,31.97
2019-03-30T12:16:54.227Z,30.05
2019-03-30T12:19:24.357Z,31.52
2019-03-30T12:21:54.418Z,32.70
2019-03-30T12:24:24.554Z,35.92
2019-03-30T12:26:55.668Z,32.90
2019-03-30T12:29:25.833Z,28.90
2019-03-30T12:31:55.949Z,37.10
2019-03-30T12:34:26.086Z,38.55
2019-03-30T12:36:56.282Z,29.92
2019-03-30T12:39:26.493Z,25.00
2019-03-30T12:41:56.601Z,29.25
2019-03-30T12:44:28.742Z,35.35
2019-03-30T12:46:58.853Z,40.03
2019-03-30T12:49:31.320Z,35.35
2019-03-30T12:52:01.384Z,33.28
2019-03-30T12:54:31.448Z,32.03
2019-03-30T12:57:01.681Z,36.28
2019-03-30T12:59:34.813Z,40.67
2019-03-30T13:02:05.035Z,37.73
2019-03-30T13:04:35.105Z,34.18
2019-03-30T13:07:05.311Z,38.78
2019-03-30T13:09:35.377Z,39.30
2019-03-30T13:12:05.519Z,37.73
2019-03-30T13:14:35.583Z,36.00
2019-03-30T13:17:05.708Z,34.23
2019-03-30T13:19:35.782Z,36.93
2019-03-30T13:22:06.923Z,35.55
2019-03-30T13:24:38.764Z,35.83
2019-03-30T13:27:08.904Z,36.03
2019-03-30T13:29:38.955Z,41.73
2019-03-30T13:32:09.090Z,33.42
2019-03-30T13:34:39.156Z,36.20
2019-03-30T13:37:19.423Z,33.85
2019-03-30T13:39:49.471Z,32.85
2019-03-30T13:42:19.606Z,48.87
2019-03-30T13:44:49.746Z,32.98
2019-03-30T13:47:21.033Z,36.42
2019-03-30T13:49:51.205Z,38.98
2019-03-30T13:52:21.322Z,35.03
2019-03-30T13:54:51.393Z,38.30
2019-03-30T13:57:21.517Z,39.23
2019-03-30T13:59:51.762Z,34.20
2019-03-30T14:02:21.990Z,36.03
2019-03-30T14:04:52.514Z,33.20
2019-03-30T14:07:22.883Z,40.52
2019-03-30T14:09:53.049Z,33.15
2019-03-30T14:12:23.206Z,38.58
2019-03-30T14:14:53.271Z,35.30
2019-03-30T14:17:23.478Z,35.68
2019-03-30T14:19:53.521Z,39.75
2019-03-30T14:22:23.605Z,35.38
2019-03-30T14:24:53.657Z,35.45
2019-03-30T14:27:23.719Z,39.65
2019-03-30T14:29:54.555Z,36.00
2019-03-30T14:32:24.717Z,34.75
2019-03-30T14:34:54.919Z,34.30
2019-03-30T14:37:24.978Z,37.20
2019-03-30T14:39:55.038Z,36.28
2019-03-30T14:42:25.128Z,35.85
2019-03-30T14:44:55.187Z,37.10
2019-03-30T14:47:25.240Z,37.90
2019-03-30T14:49:55.430Z,36.15
2019-03-30T14:52:25.534Z,37.83
2019-03-30T14:54:55.689Z,40.17
2019-03-30T14:57:25.734Z,37.67
2019-03-30T14:59:55.811Z,38.65
2019-03-30T15:02:25.932Z,39.78
2019-03-30T15:04:56.001Z,37.73
2019-03-30T15:07:26.121Z,34.92
2019-03-30T15:09:56.214Z,43.75
2019-03-30T15:12:26.413Z,42.78
2019-03-30T15:14:56.505Z,42.43
2019-03-30T15:17:26.555Z,39.00
2019-03-30T15:19:56.625Z,36.23
2019-03-30T16:42:34.293Z,38.40
2019-03-30T16:45:06.664Z,39.75
2019-03-30T16:47:36.866Z,45.40
2019-03-30T16:50:08.062Z,40.17
2019-03-30T16:52:41.068Z,48.73
2019-03-30T16:55:09.988Z,46.37
2019-03-30T16:57:43.679Z,47.73
2019-03-30T17:00:12.330Z,42.33
2019-03-30T17:02:42.548Z,38.92
2019-03-30T17:05:12.840Z,39.73
2019-03-30T17:07:42.920Z,45.17
2019-03-30T17:10:13.094Z,40.90
2019-03-30T17:12:43.229Z,40.35
2019-03-30T17:15:13.428Z,49.48
2019-03-30T17:17:43.563Z,44.58
2019-03-30T17:20:13.760Z,42.62
2019-03-30T17:22:43.817Z,41.05
2019-03-30T17:25:13.889Z,53.63
2019-03-30T17:27:57.409Z,53.25
2019-03-30T17:30:16.418Z,43.38
2019-03-30T17:32:46.539Z,47.65
2019-03-30T17:35:16.603Z,45.95
2019-03-30T17:37:46.806Z,44.63
2019-03-30T17:40:16.996Z,46.30
2019-03-30T17:42:47.153Z,46.92
2019-03-30T17:45:17.334Z,44.98
2019-03-30T17:47:47.387Z,52.03
2019-03-30T17:50:17.722Z,53.10
2019-03-30T17:52:48.665Z,48.83
2019-03-30T17:55:32.697Z,55.58
2019-03-30T17:57:50.547Z,49.93
2019-03-30T18:00:21.325Z,56.10
2019-03-30T18:02:51.463Z,55.80
2019-03-30T18:05:21.518Z,59.03
2019-03-30T18:07:51.598Z,50.67
2019-03-30T18:10:21.779Z,56.33
2019-03-30T18:12:51.925Z,67.35
2019-03-30T18:15:22.141Z,71.25
2019-03-30T18:17:52.204Z,85.57
2019-03-30T18:20:23.589Z,58.83
2019-03-30T18:22:53.796Z,73.97
2019-03-30T18:25:23.987Z,60.67
2019-03-30T18:27:54.260Z,65.75
2019-03-30T18:30:30.375Z,58.00
2019-03-30T18:33:00.681Z,65.95
2019-03-30T18:35:32.952Z,65.78
2019-03-30T18:38:03.779Z,62.58
2019-03-30T18:40:34.365Z,61.50
2019-03-30T18:43:04.573Z,61.30
2019-03-30T18:45:34.814Z,65.95
2019-03-30T18:48:15.731Z,54.13
2019-03-30T18:50:46.523Z,56.53
2019-03-30T18:53:20.284Z,62.60
2019-03-30T18:55:50.483Z,59.85
2019-03-30T18:58:20.580Z,64.22
2019-03-30T19:00:56.500Z,68.47
2019-03-30T19:03:26.596Z,75.67
2019-03-30T19:05:56.793Z,68.67
2019-03-30T19:08:26.935Z,71.97
2019-03-30T19:10:57.007Z,91.42
2019-03-30T19:13:27.203Z,94.15
2019-03-30T19:15:57.406Z,84.83
2019-03-30T19:18:27.763Z,92.57
2019-03-30T19:20:57.948Z,82.53
2019-03-30T19:23:28.148Z,71.92
2019-03-30T19:25:58.210Z,63.83
2019-03-30T19:28:28.400Z,64.55
2019-03-30T19:30:58.536Z,69.47
2019-03-30T19:33:28.595Z,64.92
2019-03-30T19:35:58.702Z,71.90
2019-03-30T19:38:28.830Z,66.72
2019-03-30T19:40:58.888Z,57.95
2019-03-30T19:43:28.973Z,59.38
2019-03-30T19:46:00.160Z,57.45
2019-03-30T19:48:36.718Z,64.60
2019-03-30T19:51:05.164Z,71.90
2019-03-30T19:53:35.306Z,60.92
2019-03-30T19:56:05.671Z,62.25
2019-03-30T19:58:35.873Z,63.10
2019-03-30T20:01:07.137Z,63.92
2019-03-30T20:03:37.414Z,59.45
2019-03-30T20:06:07.692Z,55.78
2019-03-30T20:08:37.906Z,59.13
2019-03-30T20:11:08.173Z,71.53
2019-03-30T20:13:38.243Z,64.53
2019-03-30T20:16:08.439Z,60.83
2019-03-30T20:18:38.602Z,60.17
2019-03-30T20:21:08.751Z,62.55
2019-03-30T20:23:38.886Z,63.78
2019-03-30T20:26:08.945Z,68.57
2019-03-30T20:28:40.062Z,61.48
2019-03-30T20:31:10.130Z,56.35
2019-03-30T20:33:40.253Z,69.37
2019-03-30T20:36:10.380Z,72.15
2019-03-30T20:38:40.506Z,70.87
2019-03-30T20:41:10.636Z,68.37
2019-03-30T20:43:40.786Z,75.52
2019-03-30T20:46:10.831Z,57.23
2019-03-30T20:48:41.010Z,67.32
2019-03-30T20:51:11.203Z,81.30
2019-03-30T20:53:41.250Z,65.83
2019-03-30T20:56:11.381Z,74.60
2019-03-30T20:58:41.538Z,65.78
2019-03-30T21:01:11.695Z,60.63
2019-03-30T21:03:41.816Z,58.70
2019-03-30T21:06:12.100Z,66.22
2019-03-30T21:08:42.160Z,61.15
2019-03-30T21:11:12.285Z,83.20
2019-03-30T21:13:42.427Z,60.85
2019-03-30T21:16:12.613Z,68.57
2019-03-30T21:18:42.750Z,72.20
2019-03-30T21:21:12.802Z,76.90
2019-03-30T21:23:42.865Z,75.10
2019-03-30T21:26:12.910Z,93.03
2019-03-30T21:28:43.033Z,83.10
2019-03-30T21:31:13.122Z,82.90
2019-03-30T21:33:43.486Z,86.72
2019-03-30T21:36:13.732Z,76.30
2019-03-30T21:38:43.791Z,65.25
2019-03-30T21:41:14.957Z,92.62
2019-03-30T21:43:45.019Z,80.97
2019-03-30T21:46:15.252Z,69.17
2019-03-30T21:48:45.306Z,75.78
2019-03-30T21:51:15.432Z,107.32
2019-03-30T21:53:45.634Z,246.60
2019-03-30T21:56:15.701Z,192.87
2019-03-30T21:58:45.825Z,158.03
2019-03-30T22:01:16.051Z,79.70
2019-03-30T22:03:46.211Z,76.30
2019-03-30T22:06:16.349Z,130.60
2019-03-30T22:08:46.581Z,127.60
2019-03-30T22:11:16.632Z,141.28
2019-03-30T22:13:46.827Z,118.85
2019-03-30T22:16:17.054Z,97.82
2019-03-30T22:18:47.186Z,89.28
2019-03-30T22:21:17.333Z,77.82
2019-03-30T22:23:47.382Z,77.35
2019-03-30T22:26:17.577Z,80.35
2019-03-30T22:28:47.705Z,88.95
2019-03-30T22:31:17.817Z,112.45
2019-03-30T22:33:49.018Z,88.03
2019-03-30T22:36:20.111Z,73.78
2019-03-30T22:38:50.169Z,67.03
2019-03-30T22:41:20.220Z,63.05
2019-03-30T22:43:50.294Z,60.03
2019-03-30T22:46:20.354Z,64.45
2019-03-30T22:48:50.574Z,61.75
2019-03-30T22:51:20.648Z,77.32
2019-03-30T22:53:50.754Z,70.00
2019-03-30T22:56:20.838Z,64.22
2019-03-30T22:58:50.891Z,71.55
2019-03-30T23:01:22.361Z,59.15
2019-03-30T23:03:53.641Z,63.52
2019-03-30T23:06:23.702Z,60.92
2019-03-30T23:08:53.788Z,62.27
2019-03-30T23:11:23.821Z,61.18
2019-03-30T23:13:53.995Z,58.52
2019-03-30T23:16:24.047Z,66.55
2019-03-30T23:18:54.089Z,65.83
2019-03-30T23:21:24.212Z,68.65
2019-03-30T23:23:54.399Z,64.90
2019-03-30T23:26:24.486Z,66.15
2019-03-30T23:28:54.595Z,60.45
2019-03-30T23:31:24.893Z,59.15
2019-03-30T23:33:55.010Z,62.38
2019-03-30T23:36:25.246Z,57.40
2019-03-30T23:38:55.379Z,63.68
2019-03-30T23:41:25.498Z,67.15
2019-03-30T23:43:55.697Z,64.45
2019-03-30T23:46:25.755Z,60.17
2019-03-30T23:48:55.811Z,63.98
2019-03-30T23:51:25.992Z,62.67
2019-03-30T23:53:57.195Z,65.42
2019-03-30T23:56:27.403Z,61.10
2019-03-30T23:58:57.521Z,64.17
